sensor_id;sensor_type;location;lat;lon;timestamp;P1;durP1;ratioP1;P2;durP2;ratioP2
22223;SDS011;11281;52.194;21.006;2022-09-17T00:02:31;4.40;;;3.42;;
22223;SDS011;11281;52.194;21.006;2022-09-17T00:06:53;4.15;;;3.75;;
22223;SDS011;11281;52.194;21.006;2022-09-17T00:11:19;5.53;;;4.40;;
22223;SDS011;11281;52.194;21.006;2022-09-17T00:15:48;6.72;;;4.45;;
22223;SDS011;11281;52.194;21.006;2022-09-17T00:20:12;6.38;;;4.35;;
22223;SDS011;11281;52.194;21.006;2022-09-17T00:24:33;5.18;;;4.05;;
22223;SDS011;11281;52.194;21.006;2022-09-17T00:28:56;4.93;;;3.63;;
22223;SDS011;11281;52.194;21.006;2022-09-17T00:33:19;7.38;;;3.88;;
22223;SDS011;11281;52.194;21.006;2022-09-17T00:37:41;6.72;;;4.10;;
22223;SDS011;11281;52.194;21.006;2022-09-17T00:42:02;4.00;;;3.70;;
22223;SDS011;11281;52.194;21.006;2022-09-17T00:50:58;4.03;;;3.30;;
22223;SDS011;11281;52.194;21.006;2022-09-17T00:55:23;3.33;;;2.97;;
22223;SDS011;11281;52.194;21.006;2022-09-17T00:59:52;3.70;;;2.60;;
22223;SDS011;11281;52.194;21.006;2022-09-17T01:04:18;3.42;;;3.13;;
22223;SDS011;11281;52.194;21.006;2022-09-17T01:08:54;7.97;;;2.67;;
22223;SDS011;11281;52.194;21.006;2022-09-17T01:13:56;3.97;;;2.75;;
22223;SDS011;11281;52.194;21.006;2022-09-17T01:18:23;6.18;;;2.97;;
22223;SDS011;11281;52.194;21.006;2022-09-17T01:32:14;4.50;;;2.58;;
22223;SDS011;11281;52.194;21.006;2022-09-17T01:37:14;3.60;;;2.60;;
22223;SDS011;11281;52.194;21.006;2022-09-17T01:46:56;4.65;;;3.50;;
22223;SDS011;11281;52.194;21.006;2022-09-17T01:51:38;5.18;;;3.72;;
22223;SDS011;11281;52.194;21.006;2022-09-17T01:56:07;5.28;;;3.65;;
22223;SDS011;11281;52.194;21.006;2022-09-17T02:00:33;4.38;;;3.97;;
22223;SDS011;11281;52.194;21.006;2022-09-17T02:04:59;5.78;;;3.47;;
22223;SDS011;11281;52.194;21.006;2022-09-17T02:09:42;5.95;;;3.45;;
22223;SDS011;11281;52.194;21.006;2022-09-17T02:14:16;5.32;;;3.17;;
22223;SDS011;11281;52.194;21.006;2022-09-17T02:18:54;4.30;;;3.50;;
22223;SDS011;11281;52.194;21.006;2022-09-17T02:23:30;5.45;;;3.42;;
22223;SDS011;11281;52.194;21.006;2022-09-17T02:28:01;6.80;;;3.55;;
22223;SDS011;11281;52.194;21.006;2022-09-17T02:32:27;4.03;;;3.20;;
22223;SDS011;11281;52.194;21.006;2022-09-17T02:36:48;6.25;;;3.55;;
22223;SDS011;11281;52.194;21.006;2022-09-17T02:41:17;3.83;;;3.42;;
22223;SDS011;11281;52.194;21.006;2022-09-17T03:01:41;4.40;;;3.10;;
22223;SDS011;11281;52.194;21.006;2022-09-17T03:06:09;4.63;;;2.97;;
22223;SDS011;11281;52.194;21.006;2022-09-17T03:10:30;4.93;;;3.08;;
22223;SDS011;11281;52.194;21.006;2022-09-17T03:14:53;4.72;;;2.70;;
22223;SDS011;11281;52.194;21.006;2022-09-17T03:19:15;5.20;;;2.85;;
22223;SDS011;11281;52.194;21.006;2022-09-17T03:23:37;3.85;;;2.53;;
22223;SDS011;11281;52.194;21.006;2022-09-17T03:27:59;5.43;;;3.08;;
22223;SDS011;11281;52.194;21.006;2022-09-17T03:32:21;3.58;;;3.03;;
22223;SDS011;11281;52.194;21.006;2022-09-17T03:36:42;3.00;;;2.70;;
22223;SDS011;11281;52.194;21.006;2022-09-17T03:41:05;3.30;;;2.95;;
22223;SDS011;11281;52.194;21.006;2022-09-17T03:45:27;5.18;;;3.10;;
22223;SDS011;11281;52.194;21.006;2022-09-17T03:49:49;5.75;;;3.30;;
22223;SDS011;11281;52.194;21.006;2022-09-17T03:54:12;6.15;;;3.40;;
22223;SDS011;11281;52.194;21.006;2022-09-17T03:58:34;4.57;;;3.00;;
22223;SDS011;11281;52.194;21.006;2022-09-17T04:02:56;3.67;;;2.65;;
22223;SDS011;11281;52.194;21.006;2022-09-17T04:07:18;3.40;;;2.78;;
22223;SDS011;11281;52.194;21.006;2022-09-17T04:11:39;4.20;;;2.80;;
22223;SDS011;11281;52.194;21.006;2022-09-17T04:16:01;3.97;;;2.85;;
22223;SDS011;11281;52.194;21.006;2022-09-17T04:20:24;5.57;;;3.35;;
22223;SDS011;11281;52.194;21.006;2022-09-17T04:24:46;5.35;;;3.55;;
22223;SDS011;11281;52.194;21.006;2022-09-17T04:29:08;4.68;;;3.40;;
22223;SDS011;11281;52.194;21.006;2022-09-17T04:33:30;7.05;;;4.15;;
22223;SDS011;11281;52.194;21.006;2022-09-17T04:37:55;4.43;;;3.20;;
22223;SDS011;11281;52.194;21.006;2022-09-17T04:42:18;4.18;;;3.17;;
22223;SDS011;11281;52.194;21.006;2022-09-17T04:46:39;4.90;;;3.60;;
22223;SDS011;11281;52.194;21.006;2022-09-17T04:51:01;3.53;;;3.22;;
22223;SDS011;11281;52.194;21.006;2022-09-17T04:55:23;5.18;;;3.75;;
22223;SDS011;11281;52.194;21.006;2022-09-17T04:59:45;5.72;;;3.90;;
22223;SDS011;11281;52.194;21.006;2022-09-17T05:04:07;7.18;;;4.30;;
22223;SDS011;11281;52.194;21.006;2022-09-17T05:08:29;8.73;;;4.30;;
22223;SDS011;11281;52.194;21.006;2022-09-17T05:12:52;5.07;;;3.88;;
22223;SDS011;11281;52.194;21.006;2022-09-17T05:17:15;5.60;;;4.07;;
22223;SDS011;11281;52.194;21.006;2022-09-17T05:21:37;6.32;;;4.15;;
22223;SDS011;11281;52.194;21.006;2022-09-17T05:25:59;4.68;;;4.00;;
22223;SDS011;11281;52.194;21.006;2022-09-17T05:30:21;7.78;;;3.90;;
22223;SDS011;11281;52.194;21.006;2022-09-17T05:34:43;4.65;;;3.55;;
22223;SDS011;11281;52.194;21.006;2022-09-17T05:39:05;3.40;;;3.10;;
22223;SDS011;11281;52.194;21.006;2022-09-17T05:43:27;5.80;;;3.53;;
22223;SDS011;11281;52.194;21.006;2022-09-17T05:47:53;4.72;;;3.10;;
22223;SDS011;11281;52.194;21.006;2022-09-17T05:52:18;4.13;;;3.38;;
22223;SDS011;11281;52.194;21.006;2022-09-17T05:56:40;5.22;;;3.00;;
22223;SDS011;11281;52.194;21.006;2022-09-17T06:01:02;6.55;;;3.08;;
22223;SDS011;11281;52.194;21.006;2022-09-17T06:05:24;5.20;;;3.03;;
22223;SDS011;11281;52.194;21.006;2022-09-17T06:09:45;6.20;;;2.97;;
22223;SDS011;11281;52.194;21.006;2022-09-17T06:14:08;6.07;;;2.85;;
22223;SDS011;11281;52.194;21.006;2022-09-17T06:18:30;4.43;;;2.38;;
22223;SDS011;11281;52.194;21.006;2022-09-17T06:22:55;4.63;;;2.40;;
22223;SDS011;11281;52.194;21.006;2022-09-17T06:27:18;3.90;;;2.20;;
22223;SDS011;11281;52.194;21.006;2022-09-17T06:31:40;6.13;;;2.53;;
22223;SDS011;11281;52.194;21.006;2022-09-17T06:36:05;3.40;;;2.20;;
22223;SDS011;11281;52.194;21.006;2022-09-17T06:40:30;4.60;;;2.30;;
22223;SDS011;11281;52.194;21.006;2022-09-17T06:44:53;4.63;;;2.60;;
22223;SDS011;11281;52.194;21.006;2022-09-17T06:49:14;3.25;;;1.90;;
22223;SDS011;11281;52.194;21.006;2022-09-17T06:53:38;2.55;;;2.17;;
22223;SDS011;11281;52.194;21.006;2022-09-17T06:58:00;3.53;;;2.13;;
22223;SDS011;11281;52.194;21.006;2022-09-17T07:02:21;2.78;;;2.20;;
22223;SDS011;11281;52.194;21.006;2022-09-17T07:06:43;3.90;;;2.53;;
22223;SDS011;11281;52.194;21.006;2022-09-17T07:11:05;4.15;;;2.05;;
22223;SDS011;11281;52.194;21.006;2022-09-17T07:15:28;5.13;;;2.13;;
22223;SDS011;11281;52.194;21.006;2022-09-17T07:19:50;4.63;;;2.42;;
22223;SDS011;11281;52.194;21.006;2022-09-17T07:24:11;2.92;;;2.17;;
22223;SDS011;11281;52.194;21.006;2022-09-17T07:28:33;3.50;;;2.35;;
22223;SDS011;11281;52.194;21.006;2022-09-17T07:32:55;4.25;;;2.05;;
22223;SDS011;11281;52.194;21.006;2022-09-17T07:37:22;2.20;;;2.00;;
22223;SDS011;11281;52.194;21.006;2022-09-17T07:41:44;2.47;;;1.98;;
22223;SDS011;11281;52.194;21.006;2022-09-17T07:46:06;3.40;;;2.00;;
22223;SDS011;11281;52.194;21.006;2022-09-17T07:50:33;6.57;;;2.45;;
22223;SDS011;11281;52.194;21.006;2022-09-17T07:54:55;5.80;;;2.22;;
22223;SDS011;11281;52.194;21.006;2022-09-17T07:59:16;2.80;;;2.10;;
22223;SDS011;11281;52.194;21.006;2022-09-17T08:03:39;2.42;;;2.00;;
22223;SDS011;11281;52.194;21.006;2022-09-17T08:08:01;14.80;;;3.03;;
22223;SDS011;11281;52.194;21.006;2022-09-17T08:12:23;3.60;;;2.30;;
22223;SDS011;11281;52.194;21.006;2022-09-17T08:16:45;2.58;;;2.38;;
22223;SDS011;11281;52.194;21.006;2022-09-17T08:21:08;5.45;;;2.83;;
22223;SDS011;11281;52.194;21.006;2022-09-17T08:25:33;3.38;;;2.50;;
22223;SDS011;11281;52.194;21.006;2022-09-17T08:29:54;3.30;;;2.78;;
22223;SDS011;11281;52.194;21.006;2022-09-17T08:34:16;5.35;;;2.97;;
22223;SDS011;11281;52.194;21.006;2022-09-17T08:38:38;3.38;;;2.83;;
22223;SDS011;11281;52.194;21.006;2022-09-17T08:43:00;4.18;;;2.30;;
22223;SDS011;11281;52.194;21.006;2022-09-17T08:57:11;8.02;;;2.85;;
22223;SDS011;11281;52.194;21.006;2022-09-17T09:06:21;2.28;;;1.95;;
22223;SDS011;11281;52.194;21.006;2022-09-17T09:10:56;6.68;;;2.05;;
22223;SDS011;11281;52.194;21.006;2022-09-17T09:20:14;2.95;;;2.15;;
22223;SDS011;11281;52.194;21.006;2022-09-17T09:25:05;3.30;;;2.08;;
22223;SDS011;11281;52.194;21.006;2022-09-17T09:34:27;2.10;;;1.80;;
22223;SDS011;11281;52.194;21.006;2022-09-17T09:43:49;2.35;;;1.75;;
22223;SDS011;11281;52.194;21.006;2022-09-17T10:02:30;3.97;;;1.50;;
22223;SDS011;11281;52.194;21.006;2022-09-17T10:06:54;2.17;;;1.70;;
22223;SDS011;11281;52.194;21.006;2022-09-17T10:11:26;4.35;;;1.70;;
22223;SDS011;11281;52.194;21.006;2022-09-17T10:15:50;2.13;;;1.80;;
22223;SDS011;11281;52.194;21.006;2022-09-17T10:20:14;4.35;;;1.63;;
22223;SDS011;11281;52.194;21.006;2022-09-17T10:24:37;3.58;;;1.50;;
22223;SDS011;11281;52.194;21.006;2022-09-17T10:29:02;4.57;;;1.80;;
22223;SDS011;11281;52.194;21.006;2022-09-17T10:33:31;1.60;;;1.50;;
22223;SDS011;11281;52.194;21.006;2022-09-17T10:37:53;2.28;;;1.50;;
22223;SDS011;11281;52.194;21.006;2022-09-17T10:42:18;2.75;;;1.42;;
22223;SDS011;11281;52.194;21.006;2022-09-17T10:46:40;2.03;;;1.40;;
22223;SDS011;11281;52.194;21.006;2022-09-17T10:51:02;2.50;;;1.48;;
22223;SDS011;11281;52.194;21.006;2022-09-17T10:55:30;1.48;;;1.38;;
22223;SDS011;11281;52.194;21.006;2022-09-17T11:04:41;1.83;;;1.42;;
22223;SDS011;11281;52.194;21.006;2022-09-17T11:13:59;1.98;;;1.20;;
22223;SDS011;11281;52.194;21.006;2022-09-17T11:19:26;1.30;;;1.20;;
22223;SDS011;11281;52.194;21.006;2022-09-17T11:38:09;1.10;;;1.10;;
22223;SDS011;11281;52.194;21.006;2022-09-17T11:42:49;4.63;;;1.45;;
22223;SDS011;11281;52.194;21.006;2022-09-17T11:51:49;2.90;;;1.30;;
22223;SDS011;11281;52.194;21.006;2022-09-17T11:56:20;3.65;;;2.63;;
22223;SDS011;11281;52.194;21.006;2022-09-17T12:01:06;2.35;;;2.00;;
22223;SDS011;11281;52.194;21.006;2022-09-17T12:05:39;5.10;;;1.67;;
22223;SDS011;11281;52.194;21.006;2022-09-17T12:15:23;4.90;;;2.30;;
22223;SDS011;11281;52.194;21.006;2022-09-17T12:19:54;5.10;;;3.03;;
22223;SDS011;11281;52.194;21.006;2022-09-17T12:24:24;6.10;;;3.10;;
22223;SDS011;11281;52.194;21.006;2022-09-17T12:28:53;2.50;;;2.00;;
22223;SDS011;11281;52.194;21.006;2022-09-17T12:33:44;2.25;;;1.77;;
22223;SDS011;11281;52.194;21.006;2022-09-17T12:59:14;2.15;;;1.80;;
22223;SDS011;11281;52.194;21.006;2022-09-17T13:03:40;2.08;;;1.77;;
22223;SDS011;11281;52.194;21.006;2022-09-17T13:23:32;2.78;;;1.40;;
22223;SDS011;11281;52.194;21.006;2022-09-17T13:28:08;3.63;;;1.80;;
22223;SDS011;11281;52.194;21.006;2022-09-17T13:36:53;3.25;;;1.60;;
22223;SDS011;11281;52.194;21.006;2022-09-17T13:41:18;10.25;;;1.70;;
22223;SDS011;11281;52.194;21.006;2022-09-17T13:50:33;2.00;;;1.80;;
22223;SDS011;11281;52.194;21.006;2022-09-17T13:55:01;3.73;;;1.80;;
22223;SDS011;11281;52.194;21.006;2022-09-17T13:59:25;2.97;;;1.55;;
22223;SDS011;11281;52.194;21.006;2022-09-17T14:03:49;5.03;;;1.58;;
22223;SDS011;11281;52.194;21.006;2022-09-17T14:08:14;10.88;;;7.82;;
22223;SDS011;11281;52.194;21.006;2022-09-17T14:13:26;8.55;;;7.28;;
22223;SDS011;11281;52.194;21.006;2022-09-17T14:18:00;2.30;;;1.58;;
22223;SDS011;11281;52.194;21.006;2022-09-17T14:22:25;1.98;;;1.30;;
22223;SDS011;11281;52.194;21.006;2022-09-17T14:31:30;2.08;;;1.50;;
22223;SDS011;11281;52.194;21.006;2022-09-17T14:36:17;3.15;;;1.60;;
22223;SDS011;11281;52.194;21.006;2022-09-17T14:40:42;3.97;;;1.50;;
22223;SDS011;11281;52.194;21.006;2022-09-17T14:45:10;2.70;;;1.73;;
22223;SDS011;11281;52.194;21.006;2022-09-17T14:50:20;1.75;;;1.60;;
22223;SDS011;11281;52.194;21.006;2022-09-17T14:54:44;4.72;;;2.10;;
22223;SDS011;11281;52.194;21.006;2022-09-17T14:59:08;2.03;;;1.77;;
22223;SDS011;11281;52.194;21.006;2022-09-17T15:08:35;5.60;;;3.20;;
22223;SDS011;11281;52.194;21.006;2022-09-17T15:13:08;2.90;;;1.85;;
22223;SDS011;11281;52.194;21.006;2022-09-17T15:21:56;2.90;;;2.08;;
22223;SDS011;11281;52.194;21.006;2022-09-17T15:26:20;1.92;;;1.80;;
22223;SDS011;11281;52.194;21.006;2022-09-17T15:30:50;5.15;;;2.70;;
22223;SDS011;11281;52.194;21.006;2022-09-17T15:39:41;4.85;;;2.85;;
22223;SDS011;11281;52.194;21.006;2022-09-17T15:44:19;5.28;;;3.13;;
22223;SDS011;11281;52.194;21.006;2022-09-17T15:48:43;5.22;;;2.65;;
22223;SDS011;11281;52.194;21.006;2022-09-17T15:57:29;2.40;;;2.20;;
22223;SDS011;11281;52.194;21.006;2022-09-17T16:01:53;4.78;;;3.13;;
22223;SDS011;11281;52.194;21.006;2022-09-17T16:10:38;8.50;;;2.67;;
22223;SDS011;11281;52.194;21.006;2022-09-17T16:15:00;3.78;;;2.58;;
22223;SDS011;11281;52.194;21.006;2022-09-17T16:19:22;3.60;;;2.88;;
22223;SDS011;11281;52.194;21.006;2022-09-17T16:23:44;4.90;;;2.75;;
22223;SDS011;11281;52.194;21.006;2022-09-17T16:28:14;3.28;;;2.72;;
22223;SDS011;11281;52.194;21.006;2022-09-17T16:32:39;4.80;;;2.72;;
22223;SDS011;11281;52.194;21.006;2022-09-17T16:37:01;12.52;;;5.53;;
22223;SDS011;11281;52.194;21.006;2022-09-17T16:41:22;14.55;;;6.72;;
22223;SDS011;11281;52.194;21.006;2022-09-17T16:45:57;14.43;;;6.22;;
22223;SDS011;11281;52.194;21.006;2022-09-17T16:50:26;8.73;;;5.25;;
22223;SDS011;11281;52.194;21.006;2022-09-17T16:54:48;9.80;;;6.20;;
22223;SDS011;11281;52.194;21.006;2022-09-17T16:59:10;5.55;;;3.83;;
22223;SDS011;11281;52.194;21.006;2022-09-17T17:03:32;6.90;;;4.13;;
22223;SDS011;11281;52.194;21.006;2022-09-17T17:07:54;6.05;;;3.95;;
22223;SDS011;11281;52.194;21.006;2022-09-17T17:12:16;6.60;;;3.60;;
22223;SDS011;11281;52.194;21.006;2022-09-17T17:16:38;5.40;;;3.95;;
22223;SDS011;11281;52.194;21.006;2022-09-17T17:21:06;5.63;;;4.10;;
22223;SDS011;11281;52.194;21.006;2022-09-17T17:25:29;5.97;;;3.53;;
22223;SDS011;11281;52.194;21.006;2022-09-17T17:29:52;6.28;;;4.20;;
22223;SDS011;11281;52.194;21.006;2022-09-17T17:34:13;6.30;;;4.60;;
22223;SDS011;11281;52.194;21.006;2022-09-17T17:38:35;5.55;;;4.88;;
22223;SDS011;11281;52.194;21.006;2022-09-17T17:42:57;8.77;;;4.30;;
22223;SDS011;11281;52.194;21.006;2022-09-17T17:47:19;5.20;;;4.00;;
22223;SDS011;11281;52.194;21.006;2022-09-17T17:51:41;6.85;;;4.15;;
22223;SDS011;11281;52.194;21.006;2022-09-17T17:56:04;5.10;;;3.90;;
22223;SDS011;11281;52.194;21.006;2022-09-17T18:00:29;5.28;;;4.20;;
22223;SDS011;11281;52.194;21.006;2022-09-17T18:04:50;5.35;;;4.80;;
22223;SDS011;11281;52.194;21.006;2022-09-17T18:09:12;6.68;;;4.72;;
22223;SDS011;11281;52.194;21.006;2022-09-17T18:13:35;9.40;;;5.63;;
22223;SDS011;11281;52.194;21.006;2022-09-17T18:17:58;7.45;;;6.28;;
22223;SDS011;11281;52.194;21.006;2022-09-17T18:22:19;9.05;;;6.95;;
22223;SDS011;11281;52.194;21.006;2022-09-17T18:26:41;9.63;;;8.13;;
22223;SDS011;11281;52.194;21.006;2022-09-17T18:31:06;9.13;;;7.57;;
22223;SDS011;11281;52.194;21.006;2022-09-17T18:35:45;15.63;;;10.20;;
22223;SDS011;11281;52.194;21.006;2022-09-17T18:40:08;11.45;;;9.43;;
22223;SDS011;11281;52.194;21.006;2022-09-17T18:44:29;13.02;;;10.20;;
22223;SDS011;11281;52.194;21.006;2022-09-17T18:48:51;13.70;;;11.30;;
22223;SDS011;11281;52.194;21.006;2022-09-17T18:53:14;11.80;;;9.13;;
22223;SDS011;11281;52.194;21.006;2022-09-17T18:57:36;11.73;;;8.68;;
22223;SDS011;11281;52.194;21.006;2022-09-17T19:01:57;10.05;;;8.90;;
22223;SDS011;11281;52.194;21.006;2022-09-17T19:06:19;10.68;;;8.27;;
22223;SDS011;11281;52.194;21.006;2022-09-17T19:10:42;9.70;;;8.40;;
22223;SDS011;11281;52.194;21.006;2022-09-17T19:15:11;12.93;;;8.82;;
22223;SDS011;11281;52.194;21.006;2022-09-17T19:19:32;10.25;;;8.23;;
22223;SDS011;11281;52.194;21.006;2022-09-17T19:23:54;13.23;;;9.02;;
22223;SDS011;11281;52.194;21.006;2022-09-17T19:28:16;10.77;;;9.18;;
22223;SDS011;11281;52.194;21.006;2022-09-17T19:32:43;12.93;;;9.30;;
22223;SDS011;11281;52.194;21.006;2022-09-17T19:37:06;12.80;;;9.68;;
22223;SDS011;11281;52.194;21.006;2022-09-17T19:41:28;13.77;;;9.70;;
22223;SDS011;11281;52.194;21.006;2022-09-17T19:45:58;13.15;;;10.00;;
22223;SDS011;11281;52.194;21.006;2022-09-17T19:50:49;14.15;;;9.43;;
22223;SDS011;11281;52.194;21.006;2022-09-17T19:55:14;12.45;;;10.23;;
22223;SDS011;11281;52.194;21.006;2022-09-17T19:59:36;11.48;;;8.95;;
22223;SDS011;11281;52.194;21.006;2022-09-17T20:03:58;13.40;;;10.00;;
22223;SDS011;11281;52.194;21.006;2022-09-17T20:08:19;14.10;;;9.20;;
22223;SDS011;11281;52.194;21.006;2022-09-17T20:12:41;12.55;;;9.52;;
22223;SDS011;11281;52.194;21.006;2022-09-17T20:17:03;12.40;;;9.05;;
22223;SDS011;11281;52.194;21.006;2022-09-17T20:21:26;12.73;;;9.45;;
22223;SDS011;11281;52.194;21.006;2022-09-17T20:25:50;13.02;;;10.30;;
22223;SDS011;11281;52.194;21.006;2022-09-17T20:30:13;17.67;;;12.38;;
22223;SDS011;11281;52.194;21.006;2022-09-17T20:34:35;19.05;;;13.20;;
22223;SDS011;11281;52.194;21.006;2022-09-17T20:38:56;15.88;;;12.63;;
22223;SDS011;11281;52.194;21.006;2022-09-17T20:43:18;14.63;;;11.60;;
22223;SDS011;11281;52.194;21.006;2022-09-17T20:47:40;17.25;;;13.10;;
22223;SDS011;11281;52.194;21.006;2022-09-17T20:52:02;17.75;;;12.15;;
22223;SDS011;11281;52.194;21.006;2022-09-17T20:56:25;16.92;;;12.43;;
22223;SDS011;11281;52.194;21.006;2022-09-17T21:00:50;15.80;;;11.65;;
22223;SDS011;11281;52.194;21.006;2022-09-17T21:05:12;16.05;;;12.38;;
22223;SDS011;11281;52.194;21.006;2022-09-17T21:09:33;15.50;;;11.48;;
22223;SDS011;11281;52.194;21.006;2022-09-17T21:14:01;14.50;;;11.90;;
22223;SDS011;11281;52.194;21.006;2022-09-17T21:18:23;15.63;;;12.30;;
22223;SDS011;11281;52.194;21.006;2022-09-17T21:22:45;15.35;;;11.73;;
22223;SDS011;11281;52.194;21.006;2022-09-17T21:27:07;13.93;;;10.13;;
22223;SDS011;11281;52.194;21.006;2022-09-17T21:31:30;13.57;;;10.43;;
22223;SDS011;11281;52.194;21.006;2022-09-17T21:35:54;16.05;;;11.30;;
22223;SDS011;11281;52.194;21.006;2022-09-17T21:40:16;13.68;;;10.50;;
22223;SDS011;11281;52.194;21.006;2022-09-17T21:44:37;13.13;;;10.75;;
22223;SDS011;11281;52.194;21.006;2022-09-17T21:48:59;13.18;;;11.18;;
22223;SDS011;11281;52.194;21.006;2022-09-17T21:53:22;15.85;;;10.68;;
22223;SDS011;11281;52.194;21.006;2022-09-17T21:57:43;17.52;;;10.57;;
22223;SDS011;11281;52.194;21.006;2022-09-17T22:02:05;13.75;;;9.38;;
22223;SDS011;11281;52.194;21.006;2022-09-17T22:06:28;13.57;;;10.10;;
22223;SDS011;11281;52.194;21.006;2022-09-17T22:10:51;11.70;;;9.02;;
22223;SDS011;11281;52.194;21.006;2022-09-17T22:15:13;14.85;;;10.63;;
22223;SDS011;11281;52.194;21.006;2022-09-17T22:19:35;18.20;;;10.23;;
22223;SDS011;11281;52.194;21.006;2022-09-17T22:23:57;13.88;;;9.05;;
22223;SDS011;11281;52.194;21.006;2022-09-17T22:28:22;11.15;;;8.80;;
22223;SDS011;11281;52.194;21.006;2022-09-17T22:32:44;15.50;;;8.90;;
22223;SDS011;11281;52.194;21.006;2022-09-17T22:37:05;12.20;;;8.38;;
22223;SDS011;11281;52.194;21.006;2022-09-17T22:41:28;11.50;;;7.53;;
22223;SDS011;11281;52.194;21.006;2022-09-17T22:45:53;9.18;;;6.47;;
22223;SDS011;11281;52.194;21.006;2022-09-17T22:50:14;11.77;;;7.30;;
22223;SDS011;11281;52.194;21.006;2022-09-17T22:54:36;8.48;;;6.22;;
22223;SDS011;11281;52.194;21.006;2022-09-17T22:59:00;9.23;;;6.75;;
22223;SDS011;11281;52.194;21.006;2022-09-17T23:03:24;9.05;;;6.53;;
22223;SDS011;11281;52.194;21.006;2022-09-17T23:07:46;9.57;;;6.07;;
22223;SDS011;11281;52.194;21.006;2022-09-17T23:12:08;8.88;;;5.90;;
22223;SDS011;11281;52.194;21.006;2022-09-17T23:16:37;6.85;;;5.97;;
22223;SDS011;11281;52.194;21.006;2022-09-17T23:21:05;9.32;;;5.88;;
22223;SDS011;11281;52.194;21.006;2022-09-17T23:29:54;7.28;;;5.55;;
22223;SDS011;11281;52.194;21.006;2022-09-17T23:34:16;9.10;;;5.80;;
22223;SDS011;11281;52.194;21.006;2022-09-17T23:38:38;6.95;;;5.70;;
22223;SDS011;11281;52.194;21.006;2022-09-17T23:43:01;7.38;;;5.22;;
22223;SDS011;11281;52.194;21.006;2022-09-17T23:47:23;6.65;;;4.68;;
22223;SDS011;11281;52.194;21.006;2022-09-17T23:51:45;8.20;;;5.28;;
22223;SDS011;11281;52.194;21.006;2022-09-17T23:56:09;5.30;;;4.75;;
